Archival Weather

Tokyo Intl

Tokyo Intl, Japan (RJTT)

Report from: Friday, June 24, 2022 5:00 AM JST
Current time: Tuesday, August 16, 2022 10:13 AM JST

Current weather
Weather history
Weather forecast

Temperature23.0°C (73.4°F)
Dew point23.0°C (73.4°F)
Winds 11 kts (5.7 m/s, 12.7 mph) South (190°)
Visibility6.2 mi. (10 km)
Clouds Few clouds 300 ft. (91 m)
Ceiling: Broken clouds 500 ft. (152 m)
Few clouds 500 ft. (152 m)
Broken clouds 800 ft. (244 m)
Altimeter29.77 in.Hg (1008 mB)
Relative humidity100 %
Density altitude1,485 ft. (453 m)
Flight conditions Instrument Meteorological Conditions
Raw dataRJTT 232000Z 19011KT 9999 FEW003 BKN005 23/23 Q1008 BECMG FEW005 BKN008 RMK 1ST003 7ST005 A2978
An error has occurred. This application may no longer respond until reloaded. Reload 🗙